Flight Information

DEPARTURE
LA VERNE, CA
Elevation:
1013
Runways:
8L/26R - 3661x75 - ASPH-G
8R/26L - 4840x75 - ASPH-G
ATIS:
124.4 909-596-1523
Clearance Delivery:
121.875
Ground:
125
Tower:
118.2
DESTINATION
,
Elevation:
TPA:
1000 (est.)


6762.1 NM74° True-14° Var59° HDG

Flight Plan:
(click to file on line)

1. Type
2. Aircraft Identification
3. Aircraft Type / Special Equipment
4. True Airspeed
kts
5. Departure Airport
(ICAO code)
6. Arriving Airport
(ICAO code)
7. Cruising Altitude
ft
8. Alternate Airport
(ICAO code)
9. Route of Flight
10. Remarks


00:00:00 Departure ATIS: Destination ATIS:

Clearance Limit:
Route:
Altitude: Expect in minutes
Frequency:
Transponder: (7500 Hijack / 7600 Lost Comms / 7700 Emergency)


KCCB 281255Z AUTO 00000KT 10SM CLR 19/15 A2991 RMK AO2
Time: 2020-09-28T12:55:00Z
1601298555
Winds: calm
Visibility: 10.0 sm
Clouds (AGL): CLR
Temperature: 19.0 C
Dew Point: 15.0 C
Pressure: 29.911417 in Hgbr


Notes:

Data extracted from FAA Digital Chart Supplement. Effective: 0901Z Thursday, Sep 10, 2020 to 0901Z Thursday, Nov 5, 2020
Current ATIS data is provided courtisy of PilotEdge.